createdAt,value
2023-01-19T00:02:41.781Z,5.4
2023-01-19T00:05:41.768Z,5.8
2023-01-19T00:08:41.768Z,5.7
2023-01-19T00:11:41.851Z,5.7
2023-01-19T00:14:41.774Z,5.8
2023-01-19T00:17:41.778Z,5.8
2023-01-19T00:20:41.800Z,5.4
2023-01-19T00:23:41.788Z,5.6
2023-01-19T00:26:41.794Z,5.5
2023-01-19T00:29:41.819Z,5.7
2023-01-19T00:32:41.801Z,5.5
2023-01-19T00:35:41.818Z,5.5
2023-01-19T00:38:41.821Z,5.8
2023-01-19T00:41:41.819Z,6
2023-01-19T00:44:41.822Z,5.7
2023-01-19T00:47:41.857Z,5.8
2023-01-19T00:50:41.838Z,5.5
2023-01-19T00:53:41.843Z,5.7
2023-01-19T00:56:41.845Z,5.8
2023-01-19T00:59:41.852Z,6.2
2023-01-19T01:02:42.018Z,5.7
2023-01-19T01:05:41.880Z,5.9
2023-01-19T01:08:41.918Z,6
2023-01-19T01:11:41.871Z,5.8
2023-01-19T01:14:41.865Z,5.8
2023-01-19T01:17:41.867Z,5.9
2023-01-19T01:20:41.871Z,5.8
2023-01-19T01:23:41.899Z,5.8
2023-01-19T01:26:41.879Z,6
2023-01-19T01:29:41.887Z,6.2
2023-01-19T01:32:41.887Z,6.1
2023-01-19T01:35:41.908Z,6.2
2023-01-19T01:38:41.932Z,6.2
2023-01-19T01:41:41.930Z,6.1
2023-01-19T01:44:41.903Z,5.8
2023-01-19T01:47:41.904Z,5.9
2023-01-19T01:50:41.908Z,6.2
2023-01-19T01:53:41.920Z,6.2
2023-01-19T01:56:41.924Z,5.9
2023-01-19T01:59:41.978Z,5.9
2023-01-19T02:02:41.964Z,5.6
2023-01-19T02:05:41.939Z,5.7
2023-01-19T02:08:41.940Z,5.7
2023-01-19T02:11:41.946Z,5.8
2023-01-19T02:14:41.963Z,5.7
2023-01-19T02:17:41.986Z,5.4
2023-01-19T02:20:41.969Z,5.6
2023-01-19T02:23:41.968Z,5.6
2023-01-19T02:26:41.973Z,5.6
2023-01-19T02:29:41.975Z,5.1
2023-01-19T02:32:41.977Z,5.2
2023-01-19T02:35:42.012Z,5.4
2023-01-19T02:38:41.990Z,5.2
2023-01-19T02:41:41.997Z,5.1
2023-01-19T02:44:41.996Z,5.1
2023-01-19T02:47:41.998Z,5.2
2023-01-19T02:50:42.010Z,5.2
2023-01-19T02:53:42.058Z,5.4
2023-01-19T02:56:42.007Z,5.5
2023-01-19T02:59:42.008Z,5.1
2023-01-19T03:02:42.066Z,5.4
2023-01-19T03:05:42.029Z,5.2
2023-01-19T03:08:42.027Z,5.2
2023-01-19T03:11:42.062Z,5
2023-01-19T03:14:42.042Z,5.1
2023-01-19T03:17:42.041Z,5.1
2023-01-19T03:20:42.041Z,5.5
2023-01-19T03:23:42.053Z,5.2
2023-01-19T03:26:42.062Z,5
2023-01-19T03:29:42.080Z,5.3
2023-01-19T03:32:42.065Z,4.9
2023-01-19T03:35:42.066Z,5.1
2023-01-19T03:38:42.072Z,4.9
2023-01-19T03:41:42.076Z,5.1
2023-01-19T03:44:42.076Z,4.8
2023-01-19T03:47:42.112Z,5
2023-01-19T03:50:42.090Z,4.9
2023-01-19T03:53:42.115Z,4.9
2023-01-19T03:56:42.096Z,5.4
2023-01-19T03:59:42.098Z,5
2023-01-19T04:02:42.144Z,4.9
2023-01-19T04:05:42.126Z,5
2023-01-19T04:08:42.126Z,4.9
2023-01-19T04:11:42.109Z,5.1
2023-01-19T04:14:42.115Z,4.8
2023-01-19T04:17:42.124Z,5.2
2023-01-19T04:20:42.126Z,5.1
2023-01-19T04:23:42.150Z,5.3
2023-01-19T04:26:42.123Z,5.2
2023-01-19T04:29:42.133Z,5.5
2023-01-19T04:32:42.131Z,5.4
2023-01-19T04:35:42.133Z,5.5
2023-01-19T04:38:42.147Z,5.5
2023-01-19T04:41:42.176Z,5.5
2023-01-19T04:44:42.153Z,5.4
2023-01-19T04:47:42.167Z,5.4
2023-01-19T04:50:42.164Z,5.4
2023-01-19T04:53:42.166Z,5.7
2023-01-19T04:56:42.167Z,5.5
2023-01-19T04:59:42.193Z,5.8
2023-01-19T05:02:42.202Z,5.5
2023-01-19T05:05:42.190Z,5.7
2023-01-19T05:08:43.370Z,5.8
2023-01-19T05:11:42.218Z,6
2023-01-19T05:14:42.189Z,5.7
2023-01-19T05:17:42.227Z,5.6
2023-01-19T05:20:42.197Z,5.6
2023-01-19T05:23:42.224Z,5.7
2023-01-19T05:26:42.203Z,5.6
2023-01-19T05:29:42.209Z,5.8
2023-01-19T05:32:42.210Z,5.3
2023-01-19T05:35:42.231Z,5.9
2023-01-19T05:38:42.221Z,5.6
2023-01-19T05:41:42.223Z,5.9
2023-01-19T05:44:42.225Z,5.5
2023-01-19T05:47:42.243Z,5.7
2023-01-19T05:50:42.232Z,6
2023-01-19T05:53:42.291Z,5.8
2023-01-19T05:56:42.237Z,5.8
2023-01-19T05:59:42.246Z,6.1
2023-01-19T06:02:42.308Z,6.1
2023-01-19T06:05:42.247Z,5.6
2023-01-19T06:08:42.248Z,6
2023-01-19T06:11:42.279Z,6.1
2023-01-19T06:14:42.257Z,5.9
2023-01-19T06:17:42.252Z,5.9
2023-01-19T06:20:42.256Z,5.9
2023-01-19T06:23:42.271Z,6
2023-01-19T06:26:42.261Z,6.2
2023-01-19T06:29:42.285Z,6.1
2023-01-19T06:32:42.267Z,6.5
2023-01-19T06:35:42.263Z,6.2
2023-01-19T06:38:42.378Z,6.1
2023-01-19T06:41:42.271Z,5.9
2023-01-19T06:44:42.277Z,5.8
2023-01-19T06:47:42.302Z,5.7
2023-01-19T06:50:42.282Z,5.6
2023-01-19T06:53:42.274Z,5.6
2023-01-19T06:56:42.284Z,5.5
2023-01-19T06:59:42.283Z,5.6
2023-01-19T07:02:42.346Z,5.5
2023-01-19T07:05:42.320Z,5.9
2023-01-19T07:08:42.286Z,5.7
2023-01-19T07:11:42.289Z,5.8
2023-01-19T07:14:42.317Z,5.5
2023-01-19T07:17:42.307Z,5.7
2023-01-19T07:20:42.314Z,5.3
2023-01-19T07:23:42.357Z,5.6
2023-01-19T07:26:42.341Z,5.6
2023-01-19T07:29:42.354Z,5.7
2023-01-19T07:32:42.497Z,5.5
2023-01-19T07:35:42.360Z,5.8
2023-01-19T07:38:42.376Z,5.8
2023-01-19T07:41:42.411Z,5.3
2023-01-19T07:44:42.398Z,5.5
2023-01-19T07:47:42.402Z,5.5
2023-01-19T07:50:42.410Z,5.3
2023-01-19T07:53:42.413Z,5.5
2023-01-19T07:56:42.424Z,5.7
2023-01-19T07:59:42.449Z,5.3
2023-01-19T08:02:42.425Z,5.3
2023-01-19T08:05:42.430Z,5.4
2023-01-19T08:08:42.441Z,5.5
2023-01-19T08:11:42.449Z,5.1
2023-01-19T08:14:42.453Z,5.1
2023-01-19T08:17:42.479Z,5.1
2023-01-19T08:20:42.465Z,5.1
2023-01-19T08:23:42.506Z,5.3
2023-01-19T08:26:42.471Z,5.1
2023-01-19T08:29:42.479Z,5.1
2023-01-19T08:32:42.481Z,5.3
2023-01-19T08:35:42.554Z,5
2023-01-19T08:38:42.481Z,5.4
2023-01-19T08:41:42.487Z,5.5
2023-01-19T08:44:56.992Z,5.6
2023-01-19T08:47:42.528Z,5.3
2023-01-19T08:50:42.500Z,5.4
2023-01-19T08:53:42.527Z,5.7
2023-01-19T08:56:42.509Z,5.5
2023-01-19T08:59:42.516Z,5.5
2023-01-19T09:02:42.555Z,5.4
2023-01-19T09:05:42.531Z,5.2
2023-01-19T09:08:42.526Z,4.9
2023-01-19T09:11:42.558Z,5.1
2023-01-19T09:14:42.534Z,5.3
2023-01-19T09:17:42.537Z,4.8
2023-01-19T09:20:42.547Z,4.6
2023-01-19T09:23:42.567Z,4.6
2023-01-19T09:26:42.577Z,4.8
2023-01-19T09:29:42.604Z,4.7
2023-01-19T09:32:42.626Z,4.7
2023-01-19T09:35:42.568Z,4.3
2023-01-19T09:38:42.588Z,5
2023-01-19T09:41:42.571Z,4.6
2023-01-19T09:44:42.576Z,4.3
2023-01-19T09:47:42.616Z,4.3
2023-01-19T09:50:44.110Z,4.4
2023-01-19T09:53:42.601Z,4.4
2023-01-19T09:56:42.602Z,4
2023-01-19T09:59:42.604Z,4.4
2023-01-19T10:02:42.664Z,4.2
2023-01-19T10:05:42.637Z,4
2023-01-19T10:08:42.615Z,4
2023-01-19T10:11:52.527Z,4.3
2023-01-19T10:14:42.626Z,4.4
2023-01-19T10:17:42.634Z,4.2
2023-01-19T10:20:42.631Z,4.4
2023-01-19T10:23:42.706Z,4.7
2023-01-19T10:26:42.639Z,4.9
2023-01-19T10:29:42.646Z,4.7
2023-01-19T10:32:42.652Z,5
2023-01-19T10:35:42.661Z,5.1
2023-01-19T10:38:42.697Z,5
2023-01-19T10:41:42.690Z,5.3
2023-01-19T10:44:42.691Z,5.4
2023-01-19T10:47:42.670Z,5.1
2023-01-19T10:50:42.688Z,5.2
2023-01-19T10:53:42.699Z,5
2023-01-19T10:56:42.697Z,5.8
2023-01-19T10:59:42.762Z,5.6
2023-01-19T11:02:42.749Z,5.3
2023-01-19T11:05:42.698Z,5.3
2023-01-19T11:08:42.698Z,5.5
2023-01-19T11:11:42.697Z,5.4
2023-01-19T11:14:42.708Z,5.5
2023-01-19T11:17:42.744Z,5.6
2023-01-19T11:20:42.717Z,5.5
2023-01-19T11:23:42.729Z,5.4
2023-01-19T11:26:42.728Z,5.2
2023-01-19T11:29:42.734Z,5.3
2023-01-19T11:32:42.734Z,5.8
2023-01-19T11:35:42.761Z,5.6
2023-01-19T11:38:42.746Z,5.5
2023-01-19T11:41:42.747Z,5.2
2023-01-19T11:44:42.745Z,5.5
2023-01-19T11:47:42.750Z,5.2
2023-01-19T11:50:42.755Z,5.4
2023-01-19T11:53:42.807Z,5.5
2023-01-19T11:56:42.762Z,5
2023-01-19T11:59:42.764Z,5.3
2023-01-19T12:02:42.774Z,5.2
2023-01-19T12:05:42.786Z,5.3
2023-01-19T12:08:42.785Z,5.3
2023-01-19T12:11:42.812Z,5.5
2023-01-19T12:14:42.788Z,5.1
2023-01-19T12:17:42.793Z,5
2023-01-19T12:20:42.791Z,5.1
2023-01-19T12:23:42.797Z,4.9
2023-01-19T12:26:42.805Z,5.4
2023-01-19T12:29:43.152Z,5.4
2023-01-19T12:32:42.811Z,5.2
2023-01-19T12:35:42.814Z,5.4
2023-01-19T12:38:42.813Z,5.3
2023-01-19T12:41:42.816Z,5.2
2023-01-19T12:44:42.822Z,5.6
2023-01-19T12:47:42.855Z,5.5
2023-01-19T12:50:42.834Z,5.8
2023-01-19T12:53:42.852Z,5.9
2023-01-19T12:56:42.843Z,5.9
2023-01-19T12:59:42.845Z,6.2
2023-01-19T13:02:42.912Z,5.7
2023-01-19T13:05:42.891Z,6.2
2023-01-19T13:08:42.872Z,6
2023-01-19T13:11:44.360Z,5.8
2023-01-19T13:14:42.873Z,5.8
2023-01-19T13:17:42.881Z,6.1
2023-01-19T13:20:42.881Z,6.1
2023-01-19T13:23:42.918Z,6.1
2023-01-19T13:26:42.892Z,5.9
2023-01-19T13:29:42.893Z,6.2
2023-01-19T13:32:42.900Z,6.1
2023-01-19T13:35:42.898Z,6.2
2023-01-19T13:38:42.900Z,6.3
2023-01-19T13:41:42.933Z,6.2
2023-01-19T13:44:42.915Z,6.3
2023-01-19T13:47:42.928Z,6.2
2023-01-19T13:50:42.920Z,6.3
2023-01-19T13:53:42.960Z,5.8
2023-01-19T13:56:42.941Z,6.2
2023-01-19T13:59:43.004Z,5.8
2023-01-19T14:02:43.025Z,5.9
2023-01-19T14:05:42.976Z,5.6
2023-01-19T14:08:42.942Z,5.3
2023-01-19T14:11:42.947Z,4.9
2023-01-19T14:14:42.951Z,5.3
2023-01-19T14:17:42.991Z,5.4
2023-01-19T14:20:42.965Z,5.1
2023-01-19T14:23:42.978Z,5.2
2023-01-19T14:26:43.025Z,5.2
2023-01-19T14:29:42.993Z,5.7
2023-01-19T14:32:42.984Z,5.5
2023-01-19T14:35:43.014Z,5.3
2023-01-19T14:38:42.994Z,5.6
2023-01-19T14:41:42.994Z,5.6
2023-01-19T14:44:43.003Z,5.7
2023-01-19T14:47:43.006Z,6.3
2023-01-19T14:50:51.153Z,6.5
2023-01-19T14:53:43.042Z,6.9
2023-01-19T14:56:43.018Z,6.9
2023-01-19T14:59:43.032Z,7.3
2023-01-19T15:02:43.074Z,7.4
2023-01-19T15:05:43.042Z,7.9
2023-01-19T15:08:43.042Z,8.1
2023-01-19T15:11:43.055Z,8.4
2023-01-19T15:14:43.050Z,8.9
2023-01-19T15:17:43.058Z,8.9
2023-01-19T15:20:43.056Z,9.3
2023-01-19T15:23:43.056Z,9.4
2023-01-19T15:26:43.058Z,9.7
2023-01-19T15:29:43.101Z,9.6
2023-01-19T15:32:43.065Z,9.5
2023-01-19T15:35:43.072Z,9.5
2023-01-19T15:38:43.072Z,9.7
2023-01-19T15:41:43.085Z,9.5
2023-01-19T15:44:43.096Z,9.8
2023-01-19T15:47:43.109Z,9.8
2023-01-19T15:50:43.108Z,10.1
2023-01-19T15:53:43.112Z,9.7
2023-01-19T15:56:43.109Z,9.4
2023-01-19T15:59:43.128Z,9.3
2023-01-19T16:02:43.158Z,9
2023-01-19T16:05:43.781Z,9.3
2023-01-19T16:08:43.119Z,9.4
2023-01-19T16:11:43.121Z,9.3
2023-01-19T16:14:43.139Z,9.8
2023-01-19T16:17:43.137Z,9.6
2023-01-19T16:20:43.143Z,10.7
2023-01-19T16:23:43.173Z,10.2
2023-01-19T16:26:43.169Z,12.8
2023-01-19T16:29:43.157Z,11.6
2023-01-19T16:32:43.154Z,11.7
2023-01-19T16:35:43.154Z,11.2
2023-01-19T16:38:43.161Z,12
2023-01-19T16:41:43.200Z,10.3
2023-01-19T16:44:43.182Z,10.2
2023-01-19T16:47:43.169Z,9.7
2023-01-19T16:50:43.185Z,9.9
2023-01-19T16:53:43.174Z,9.2
2023-01-19T16:56:43.183Z,9.3
2023-01-19T16:59:43.224Z,9.3
2023-01-19T17:02:43.278Z,9.9
2023-01-19T17:05:43.190Z,9.8
2023-01-19T17:08:43.195Z,10.8
2023-01-19T17:11:43.196Z,10.8
2023-01-19T17:14:43.216Z,10.1
2023-01-19T17:17:43.240Z,10.6
2023-01-19T17:20:43.212Z,10.7
2023-01-19T17:23:43.210Z,11.2
2023-01-19T17:26:43.220Z,11.4
2023-01-19T17:29:43.257Z,11.6
2023-01-19T17:32:43.256Z,11.9
2023-01-19T17:35:43.266Z,12.2
2023-01-19T17:38:43.262Z,12.9
2023-01-19T17:41:43.254Z,12.7
2023-01-19T17:44:43.264Z,12.6
2023-01-19T17:47:43.260Z,12.2
2023-01-19T17:50:43.263Z,12.6
2023-01-19T17:53:43.297Z,12.4
2023-01-19T17:56:43.274Z,13.4
2023-01-19T17:59:43.285Z,12.7
2023-01-19T18:02:43.306Z,12.5
2023-01-19T18:05:43.287Z,13.1
2023-01-19T18:08:43.284Z,12.7
2023-01-19T18:11:43.314Z,13
2023-01-19T18:14:43.306Z,13.7
2023-01-19T18:17:43.297Z,13.2
2023-01-19T18:20:43.293Z,13.3
2023-01-19T18:23:43.300Z,14.3
2023-01-19T18:26:43.303Z,12.9
2023-01-19T18:29:43.346Z,13.4
2023-01-19T18:32:43.315Z,13.1
2023-01-19T18:35:43.323Z,13.6
2023-01-19T18:38:43.339Z,13.6
2023-01-19T18:41:43.329Z,13.3
2023-01-19T18:44:43.338Z,14
2023-01-19T18:47:43.349Z,14.3
2023-01-19T18:50:43.332Z,13.8
2023-01-19T18:53:43.347Z,13.6
2023-01-19T18:56:43.346Z,13.6
2023-01-19T18:59:43.358Z,13.8
2023-01-19T19:02:43.348Z,14
2023-01-19T19:05:43.387Z,13.5
2023-01-19T19:08:43.348Z,13.4
2023-01-19T19:11:43.351Z,13.6
2023-01-19T19:14:43.367Z,13.8
2023-01-19T19:17:43.356Z,13.3
2023-01-19T19:20:43.443Z,13.6
2023-01-19T19:23:43.384Z,13.5
2023-01-19T19:26:43.366Z,14.2
2023-01-19T19:29:43.498Z,13.8
2023-01-19T19:32:43.374Z,13.9
2023-01-19T19:35:43.377Z,14
2023-01-19T19:38:43.381Z,14
2023-01-19T19:41:43.403Z,14.3
2023-01-19T19:44:43.397Z,14
2023-01-19T19:47:43.385Z,13.9
2023-01-19T19:50:43.392Z,14.5
2023-01-19T19:53:43.397Z,14.2
2023-01-19T19:56:43.447Z,14.7
2023-01-19T19:59:43.434Z,14.8
2023-01-19T20:02:43.405Z,14.7
2023-01-19T20:05:43.408Z,15.4
2023-01-19T20:08:43.408Z,15.5
2023-01-19T20:11:43.407Z,15.6
2023-01-19T20:14:43.427Z,16.2
2023-01-19T20:17:43.447Z,17
2023-01-19T20:20:43.418Z,15.9
2023-01-19T20:23:43.418Z,16.3
2023-01-19T20:26:43.427Z,16.3
2023-01-19T20:29:43.434Z,17.2
2023-01-19T20:32:43.429Z,17.3
2023-01-19T20:35:43.449Z,17.8
2023-01-19T20:38:43.439Z,17.3
2023-01-19T20:41:43.559Z,17.7
2023-01-19T20:44:43.498Z,17.6
2023-01-19T20:47:43.440Z,18.1
2023-01-19T20:50:43.441Z,22.7
2023-01-19T20:53:43.464Z,19.9
2023-01-19T20:56:43.444Z,20.3
2023-01-19T20:59:43.457Z,20.7
2023-01-19T21:02:43.485Z,21.5
2023-01-19T21:05:43.450Z,20.3
2023-01-19T21:08:43.460Z,20.1
2023-01-19T21:11:43.476Z,20.5
2023-01-19T21:14:43.464Z,20.8
2023-01-19T21:17:45.153Z,20.7
2023-01-19T21:20:43.456Z,20.7
2023-01-19T21:23:43.457Z,21.8
2023-01-19T21:26:43.461Z,21.9
2023-01-19T21:29:43.512Z,21.9
2023-01-19T21:32:43.458Z,22.2
2023-01-19T21:35:43.473Z,22.4
2023-01-19T21:38:43.467Z,23.5
2023-01-19T21:41:43.472Z,23.5
2023-01-19T21:44:43.492Z,23.8
2023-01-19T21:47:43.507Z,23.4
2023-01-19T21:50:43.487Z,24.5
2023-01-19T21:53:43.508Z,24
2023-01-19T21:56:43.511Z,24.8
2023-01-19T21:59:43.506Z,24.5
2023-01-19T22:02:49.394Z,26.8
2023-01-19T22:05:43.534Z,25.6
2023-01-19T22:08:43.520Z,27
2023-01-19T22:11:43.521Z,26.7
2023-01-19T22:14:43.542Z,26.5
2023-01-19T22:17:43.544Z,26.1
2023-01-19T22:20:43.549Z,27.7
2023-01-19T22:23:43.584Z,27
2023-01-19T22:26:43.562Z,27.4
2023-01-19T22:29:43.583Z,26
2023-01-19T22:32:43.592Z,28
2023-01-19T22:35:43.588Z,30.4
2023-01-19T22:38:43.601Z,26.9
2023-01-19T22:41:43.635Z,26
2023-01-19T22:44:43.628Z,25.9
2023-01-19T22:47:43.624Z,26.5
2023-01-19T22:50:43.637Z,26.8
2023-01-19T22:53:43.640Z,26.3
2023-01-19T22:56:43.669Z,25.5
2023-01-19T22:59:43.731Z,26.8
2023-01-19T23:02:43.662Z,27.1
2023-01-19T23:05:43.695Z,26.6
2023-01-19T23:08:43.704Z,26.6
2023-01-19T23:11:43.749Z,26.2
2023-01-19T23:14:43.770Z,25.7
2023-01-19T23:17:43.802Z,25.7
2023-01-19T23:20:43.779Z,24.5
2023-01-19T23:23:43.823Z,25.3
2023-01-19T23:26:43.845Z,25
2023-01-19T23:29:43.872Z,25.3
2023-01-19T23:32:43.847Z,23.7
2023-01-19T23:35:43.876Z,24.5
2023-01-19T23:38:43.868Z,24.1
2023-01-19T23:41:43.864Z,24.3
2023-01-19T23:44:43.882Z,25.6
2023-01-19T23:47:43.870Z,24.3
2023-01-19T23:50:43.867Z,24
2023-01-19T23:53:43.896Z,25.6
2023-01-19T23:56:43.867Z,25
2023-01-19T23:59:43.881Z,25.2
